Sylvan Beach, Texas
Current Conditions -  °F | °C
As of 4:50 AM on Thursday 18 Dec 2014 (Local Time) from KEFD Reporting Station
Broken Clouds Broken Clouds  
Wind Chill: 17°   Ceiling: 2500
Heat Index: 17°   Visibility: 7mi
Dew Point: 16°   Wind: 5mph
Humidity: 94%   Direction: 80°E
Pressure: 30.05"   Gusts: NA
Location:  29.6785°N, 95.0483°W
Report Text: KEFD 181050Z 08004KT 7SM SCT015 BKN025 17/16 A3005
Loading
Personal Weather Stations






























Interactive Weather Map New forecast layout! Learn more

10-Day Weather Forecast

Advertisements
Track Severe Weather on mobile